createdAt,value
2019-02-18T00:01:58.629Z,115.35
2019-02-18T00:04:28.299Z,132.40
2019-02-18T00:06:58.016Z,112.08
2019-02-18T00:09:27.651Z,113.37
2019-02-18T00:11:57.469Z,119.02
2019-02-18T00:14:27.139Z,127.22
2019-02-18T00:16:56.863Z,117.85
2019-02-18T00:19:26.551Z,116.33
2019-02-18T00:21:56.272Z,116.95
2019-02-18T00:24:25.957Z,120.60
2019-02-18T00:26:56.622Z,109.78
2019-02-18T00:29:26.355Z,101.60
2019-02-18T00:31:56.100Z,122.95
2019-02-18T00:34:25.788Z,112.37
2019-02-18T00:36:55.479Z,109.30
2019-02-18T00:39:25.165Z,110.75
2019-02-18T00:41:54.883Z,105.37
2019-02-18T00:44:24.678Z,95.57
2019-02-18T00:46:54.475Z,85.87
2019-02-18T00:49:24.121Z,88.50
2019-02-18T00:51:53.795Z,102.82
2019-02-18T00:54:23.506Z,91.12
2019-02-18T00:56:53.143Z,87.88
2019-02-18T00:59:22.932Z,87.57
2019-02-18T01:01:52.632Z,80.45
2019-02-18T01:04:22.330Z,81.02
2019-02-18T01:06:53.220Z,83.10
2019-02-18T01:09:26.013Z,72.15
2019-02-18T01:11:55.722Z,90.70
2019-02-18T01:14:25.515Z,85.38
2019-02-18T01:16:55.238Z,68.78
2019-02-18T01:19:24.960Z,71.95
2019-02-18T01:21:54.695Z,86.50
2019-02-18T01:24:24.540Z,79.00
2019-02-18T01:26:54.330Z,92.37
2019-02-18T01:29:24.227Z,80.12
2019-02-18T01:31:53.898Z,81.20
2019-02-18T01:34:26.470Z,88.85
2019-02-18T01:36:56.193Z,88.75
2019-02-18T01:39:25.884Z,86.55
2019-02-18T01:41:55.542Z,85.65
2019-02-18T01:44:25.232Z,100.15
2019-02-18T01:46:54.924Z,103.20
2019-02-18T01:49:24.898Z,91.35
2019-02-18T01:51:54.622Z,90.50
2019-02-18T01:54:24.601Z,98.55
2019-02-18T01:56:54.281Z,90.83
2019-02-18T01:59:23.987Z,91.15
2019-02-18T02:01:53.742Z,103.12
2019-02-18T02:04:23.437Z,105.12
2019-02-18T02:06:53.114Z,95.42
2019-02-18T02:09:22.859Z,116.25
2019-02-18T02:11:52.494Z,112.05
2019-02-18T02:14:22.207Z,120.72
2019-02-18T02:16:51.885Z,138.80
2019-02-18T02:19:21.710Z,108.32
2019-02-18T02:21:51.368Z,115.75
2019-02-18T02:24:21.189Z,118.02
2019-02-18T02:26:50.843Z,115.15
2019-02-18T02:29:20.650Z,123.40
2019-02-18T02:31:50.569Z,125.50
2019-02-18T02:34:20.361Z,119.30
2019-02-18T02:36:50.059Z,117.97
2019-02-18T02:39:19.770Z,125.85
2019-02-18T02:41:52.219Z,131.20
2019-02-18T02:44:21.922Z,108.20
2019-02-18T02:46:51.584Z,125.70
2019-02-18T02:49:21.271Z,109.90
2019-02-18T02:51:50.976Z,107.85
2019-02-18T02:54:20.715Z,102.30
2019-02-18T02:56:50.419Z,102.95
2019-02-18T02:59:20.171Z,111.12
2019-02-18T03:01:50.013Z,105.10
2019-02-18T03:04:19.727Z,116.17
2019-02-18T03:06:49.423Z,111.28
2019-02-18T03:09:19.119Z,103.22
2019-02-18T03:11:48.852Z,113.83
2019-02-18T03:14:18.516Z,111.85
2019-02-18T03:16:48.366Z,103.07
2019-02-18T03:19:18.056Z,110.57
2019-02-18T03:21:47.740Z,102.87
2019-02-18T03:24:17.404Z,98.30
2019-02-18T03:26:47.082Z,109.57
2019-02-18T03:29:56.076Z,107.87
2019-02-18T03:32:25.819Z,103.95
2019-02-18T03:34:55.502Z,106.00
2019-02-18T03:37:25.276Z,110.15
2019-02-18T03:39:54.990Z,105.97
2019-02-18T03:42:24.730Z,106.03
2019-02-18T03:44:54.492Z,116.30
2019-02-18T03:47:24.211Z,102.53
2019-02-18T03:49:54.043Z,107.50
2019-02-18T03:52:23.744Z,99.70
2019-02-18T03:54:53.652Z,100.38
2019-02-18T03:57:23.575Z,120.45
2019-02-18T03:59:53.428Z,108.37
2019-02-18T04:02:23.304Z,104.30
2019-02-18T04:04:53.114Z,120.20
2019-02-18T04:07:22.825Z,123.80
2019-02-18T04:09:52.665Z,112.32
2019-02-18T04:12:22.461Z,117.50
2019-02-18T04:14:52.162Z,112.25
2019-02-18T04:17:21.869Z,118.30
2019-02-18T04:19:52.355Z,120.72
2019-02-18T04:22:22.309Z,119.08
2019-02-18T04:24:52.065Z,103.20
2019-02-18T04:27:21.867Z,111.88
2019-02-18T04:29:51.580Z,126.10
2019-02-18T04:32:21.353Z,107.72
2019-02-18T04:34:51.056Z,107.27
2019-02-18T04:37:20.803Z,115.42
2019-02-18T04:39:50.906Z,127.12
2019-02-18T04:42:20.809Z,104.63
2019-02-18T04:44:50.530Z,111.45
2019-02-18T04:47:20.269Z,109.52
2019-02-18T04:49:50.017Z,109.27
2019-02-18T04:52:19.727Z,117.57
2019-02-18T04:54:49.460Z,116.50
2019-02-18T04:57:19.185Z,112.15
2019-02-18T04:59:48.888Z,114.37
2019-02-18T05:02:18.661Z,108.22
2019-02-18T05:04:48.470Z,116.25
2019-02-18T05:07:18.187Z,106.55
2019-02-18T05:09:47.934Z,103.65
2019-02-18T05:12:17.658Z,112.32
2019-02-18T05:14:47.370Z,117.65
2019-02-18T05:17:17.017Z,125.67
2019-02-18T05:19:46.743Z,110.15
2019-02-18T05:22:16.454Z,113.72
2019-02-18T05:24:46.214Z,117.40
2019-02-18T05:27:16.077Z,103.80
2019-02-18T05:29:45.862Z,108.75
2019-02-18T05:32:15.551Z,106.52
2019-02-18T05:34:45.302Z,111.35
2019-02-18T05:37:14.964Z,115.57
2019-02-18T05:39:44.669Z,115.28
2019-02-18T05:42:14.432Z,104.50
2019-02-18T05:44:44.131Z,108.17
2019-02-18T05:47:13.825Z,105.52
2019-02-18T05:49:43.619Z,118.75
2019-02-18T05:52:13.305Z,113.17
2019-02-18T05:54:43.022Z,114.52
2019-02-18T05:57:12.708Z,111.12
2019-02-18T05:59:42.502Z,104.95
2019-02-18T06:02:13.260Z,105.97
2019-02-18T06:04:44.144Z,112.95
2019-02-18T06:07:13.903Z,104.90
2019-02-18T06:09:43.677Z,125.00
2019-02-18T06:12:13.397Z,102.97
2019-02-18T06:14:43.167Z,99.72
2019-02-18T06:17:12.939Z,99.62
2019-02-18T06:19:42.923Z,96.95
2019-02-18T06:22:12.695Z,113.37
2019-02-18T06:24:42.432Z,112.57
2019-02-18T06:27:12.151Z,115.57
2019-02-18T06:29:41.970Z,95.40
2019-02-18T06:32:11.705Z,107.32
2019-02-18T06:34:41.472Z,109.80
2019-02-18T06:37:11.137Z,96.63
2019-02-18T06:39:42.032Z,97.35
2019-02-18T06:42:12.001Z,105.00
2019-02-18T06:44:50.178Z,121.47
2019-02-18T06:47:25.205Z,106.58
2019-02-18T06:49:54.774Z,93.90
2019-02-18T06:52:24.435Z,116.22
2019-02-18T06:54:54.137Z,106.65
2019-02-18T06:57:32.423Z,104.65
2019-02-18T07:00:07.994Z,110.52
2019-02-18T07:03:02.852Z,103.20
2019-02-18T07:06:06.676Z,110.32
2019-02-18T07:08:56.190Z,99.30
2019-02-18T07:11:39.649Z,95.95
2019-02-18T07:14:09.355Z,92.90
2019-02-18T07:16:39.035Z,88.30
2019-02-18T07:19:08.729Z,111.37
2019-02-18T07:21:38.443Z,87.70
2019-02-18T07:24:08.111Z,89.10
2019-02-18T07:26:39.889Z,101.95
2019-02-18T07:29:09.547Z,88.10
2019-02-18T07:31:39.270Z,83.40
2019-02-18T07:34:08.968Z,102.05
2019-02-18T07:36:38.800Z,80.47
2019-02-18T07:39:09.083Z,83.35
2019-02-18T07:41:41.243Z,82.70
2019-02-18T07:44:10.922Z,78.80
2019-02-18T07:46:40.642Z,84.83
2019-02-18T07:49:10.338Z,84.45
2019-02-18T07:51:42.103Z,80.38
2019-02-18T07:54:11.877Z,83.17
2019-02-18T07:56:41.622Z,78.50
2019-02-18T07:59:11.304Z,72.25
2019-02-18T08:01:41.110Z,71.05
2019-02-18T08:04:10.766Z,74.50
2019-02-18T08:06:40.510Z,82.75
2019-02-18T08:09:10.272Z,75.70
2019-02-18T08:11:39.998Z,75.85
2019-02-18T08:14:16.304Z,77.03
2019-02-18T08:16:46.148Z,80.12
2019-02-18T08:19:15.871Z,72.10
2019-02-18T08:21:45.694Z,71.47
2019-02-18T08:24:15.464Z,66.45
2019-02-18T08:26:45.183Z,70.15
2019-02-18T08:29:16.305Z,67.72
2019-02-18T08:31:47.805Z,76.97
2019-02-18T08:34:17.959Z,74.37
2019-02-18T08:36:47.676Z,73.57
2019-02-18T08:39:17.483Z,78.92
2019-02-18T08:41:49.254Z,79.10
2019-02-18T08:44:18.992Z,85.28
2019-02-18T08:46:48.793Z,80.45
2019-02-18T08:49:18.607Z,71.60
2019-02-18T08:51:48.339Z,63.50
2019-02-18T08:54:18.141Z,63.28
2019-02-18T08:56:48.020Z,58.17
2019-02-18T08:59:17.731Z,69.40
2019-02-18T09:01:47.544Z,78.10
2019-02-18T09:04:17.356Z,70.60
2019-02-18T09:06:47.068Z,62.70
2019-02-18T09:09:16.915Z,69.90
2019-02-18T09:11:46.590Z,69.62
2019-02-18T09:14:16.351Z,64.17
2019-02-18T09:16:46.127Z,73.02
2019-02-18T09:19:15.866Z,70.65
2019-02-18T09:21:46.113Z,79.37
2019-02-18T09:24:20.574Z,67.42
2019-02-18T09:26:50.258Z,63.58
2019-02-18T09:29:22.337Z,64.00
2019-02-18T09:31:52.139Z,68.30
2019-02-18T09:34:21.878Z,69.35
2019-02-18T09:36:51.635Z,79.00
2019-02-18T09:39:30.564Z,74.80
2019-02-18T09:41:53.655Z,73.05
2019-02-18T09:47:55.019Z,74.82
2019-02-18T09:50:24.750Z,74.58
2019-02-18T09:52:54.476Z,80.05
2019-02-18T09:55:24.190Z,65.00
2019-02-18T09:57:53.933Z,73.12
2019-02-18T10:00:23.654Z,87.62
2019-02-18T10:02:53.355Z,65.12
2019-02-18T10:05:25.873Z,67.67
2019-02-18T10:07:55.533Z,66.53
2019-02-18T10:10:25.288Z,95.40
2019-02-18T10:12:55.113Z,81.10
2019-02-18T10:15:24.847Z,60.90
2019-02-18T10:17:54.526Z,68.42
2019-02-18T10:20:24.240Z,73.52
2019-02-18T10:22:53.967Z,53.52
2019-02-18T10:25:23.707Z,62.20
2019-02-18T10:27:53.590Z,59.13
2019-02-18T10:30:23.411Z,74.10
2019-02-18T10:32:53.170Z,75.95
2019-02-18T10:35:22.933Z,64.87
2019-02-18T10:37:55.125Z,48.40
2019-02-18T10:40:25.301Z,51.70
2019-02-18T10:42:54.951Z,58.13
2019-02-18T10:45:24.652Z,46.98
2019-02-18T10:47:54.332Z,44.75
2019-02-18T10:50:24.150Z,48.35
2019-02-18T10:52:53.847Z,44.23
2019-02-18T10:55:23.856Z,41.45
2019-02-18T10:57:55.632Z,47.88
2019-02-18T11:00:25.553Z,46.63
2019-02-18T11:02:55.425Z,44.98
2019-02-18T11:05:25.125Z,35.78
2019-02-18T11:07:55.189Z,43.28
2019-02-18T11:10:24.957Z,37.20
2019-02-18T11:12:54.617Z,42.13
2019-02-18T11:15:24.379Z,34.92
2019-02-18T11:17:54.143Z,41.08
2019-02-18T11:20:27.906Z,38.88
2019-02-18T11:22:57.576Z,35.30
2019-02-18T11:25:27.291Z,31.57
2019-02-18T11:27:57.023Z,34.25
2019-02-18T11:30:26.735Z,40.55
2019-02-18T11:32:56.521Z,32.85
2019-02-18T11:35:26.226Z,28.95
2019-02-18T11:37:55.966Z,25.80
2019-02-18T11:40:25.632Z,27.90
2019-02-18T11:42:55.744Z,28.87
2019-02-18T11:45:25.485Z,32.78
2019-02-18T11:47:55.203Z,28.83
2019-02-18T11:50:24.838Z,38.45
2019-02-18T11:52:54.608Z,35.08
2019-02-18T11:55:24.491Z,41.02
2019-02-18T11:57:54.253Z,35.63
2019-02-18T12:00:23.926Z,35.52
2019-02-18T12:03:02.789Z,34.70
2019-02-18T12:05:27.011Z,35.73
2019-02-18T12:07:56.727Z,36.60
2019-02-18T12:10:26.604Z,28.62
2019-02-18T12:12:56.514Z,32.88
2019-02-18T12:15:26.192Z,30.45
2019-02-18T12:17:55.962Z,33.05
2019-02-18T12:20:25.643Z,32.95
2019-02-18T12:22:55.612Z,31.50
2019-02-18T12:25:25.636Z,26.33
2019-02-18T12:27:55.351Z,26.87
2019-02-18T12:30:25.004Z,26.70
2019-02-18T12:32:56.028Z,30.45
2019-02-18T12:35:31.078Z,27.62
2019-02-18T12:37:57.193Z,30.08
2019-02-18T12:40:26.858Z,24.75
2019-02-18T12:42:56.561Z,31.10
2019-02-18T12:45:26.207Z,25.80
2019-02-18T12:47:55.891Z,25.08
2019-02-18T12:50:25.651Z,24.15
2019-02-18T12:52:55.837Z,21.25
2019-02-18T12:55:25.865Z,19.95
2019-02-18T12:57:55.829Z,17.12
2019-02-18T13:00:25.668Z,20.97
2019-02-18T13:02:55.401Z,22.13
2019-02-18T13:05:25.144Z,22.45
2019-02-18T13:07:54.977Z,23.30
2019-02-18T13:10:34.500Z,16.07
2019-02-18T13:12:56.296Z,16.12
2019-02-18T13:15:25.965Z,20.55
2019-02-18T13:17:55.760Z,24.72
2019-02-18T13:20:25.589Z,22.48
2019-02-18T13:22:55.418Z,19.77
2019-02-18T13:25:25.080Z,21.60
2019-02-18T13:27:54.815Z,20.25
2019-02-18T13:30:24.531Z,25.70
2019-02-18T13:32:54.201Z,21.75
2019-02-18T13:35:23.935Z,26.17
2019-02-18T13:37:53.648Z,22.22
2019-02-18T13:40:23.445Z,28.85
2019-02-18T13:42:53.137Z,24.75
2019-02-18T13:45:22.854Z,22.42
2019-02-18T13:47:52.719Z,23.83
2019-02-18T13:50:22.426Z,26.00
2019-02-18T13:52:52.181Z,26.90
2019-02-18T13:55:22.386Z,24.30
2019-02-18T13:57:52.195Z,28.12
2019-02-18T14:00:22.059Z,26.57
2019-02-18T14:02:52.155Z,25.72
2019-02-18T14:05:22.234Z,16.75
2019-02-18T14:07:51.936Z,20.92
2019-02-18T14:10:22.323Z,22.48
2019-02-18T14:12:52.127Z,27.85
2019-02-18T14:15:22.028Z,22.40
2019-02-18T14:17:51.750Z,23.95
2019-02-18T14:20:21.655Z,25.12
2019-02-18T14:22:51.377Z,24.23
2019-02-18T14:25:21.120Z,24.90
2019-02-18T14:27:50.845Z,22.73
2019-02-18T14:30:20.777Z,24.18
2019-02-18T14:32:50.442Z,21.70
2019-02-18T14:35:20.328Z,26.62
2019-02-18T14:37:51.062Z,23.22
2019-02-18T14:40:21.567Z,27.20
2019-02-18T14:42:51.604Z,21.12
2019-02-18T14:45:21.327Z,19.45
2019-02-18T14:47:53.840Z,20.70
2019-02-18T14:50:23.739Z,19.90
2019-02-18T14:52:55.550Z,22.15
2019-02-18T14:55:25.378Z,18.32
2019-02-18T14:57:55.166Z,21.65
2019-02-18T15:00:26.381Z,17.92
2019-02-18T15:02:57.704Z,22.32
2019-02-18T15:05:27.927Z,24.12
2019-02-18T15:07:57.604Z,19.55
2019-02-18T15:10:27.268Z,20.82
2019-02-18T15:12:56.967Z,23.67
2019-02-18T15:15:26.659Z,22.67
2019-02-18T15:17:58.448Z,20.65
2019-02-18T15:20:28.151Z,27.13
2019-02-18T15:22:57.959Z,25.12
2019-02-18T15:25:27.653Z,29.70
2019-02-18T15:27:57.396Z,21.65
2019-02-18T15:30:27.120Z,26.42
2019-02-18T15:32:57.287Z,22.90
2019-02-18T15:35:27.059Z,24.15
2019-02-18T15:37:56.799Z,25.77
2019-02-18T15:40:26.456Z,23.02
2019-02-18T15:42:58.436Z,25.90
2019-02-18T15:45:28.260Z,27.22
2019-02-18T15:48:01.677Z,26.45
2019-02-18T15:50:30.860Z,25.70
2019-02-18T15:53:00.591Z,26.27
2019-02-18T15:55:30.875Z,27.22
2019-02-18T15:58:00.627Z,28.92
2019-02-18T16:00:30.872Z,28.12
2019-02-18T16:03:01.892Z,28.32
2019-02-18T16:05:31.624Z,29.25
2019-02-18T16:08:01.406Z,31.27
2019-02-18T16:10:31.279Z,25.12
2019-02-18T16:13:01.077Z,28.87
2019-02-18T16:15:31.000Z,28.85
2019-02-18T16:18:00.693Z,30.12
2019-02-18T16:20:30.429Z,29.52
2019-02-18T16:23:00.115Z,33.73
2019-02-18T16:25:29.872Z,31.97
2019-02-18T16:27:59.595Z,28.83
2019-02-18T16:30:29.470Z,32.83
2019-02-18T16:32:59.370Z,28.17
2019-02-18T16:35:29.560Z,26.90
2019-02-18T16:37:59.308Z,32.85
2019-02-18T16:40:29.956Z,31.07
2019-02-18T16:42:59.762Z,28.42
2019-02-18T16:45:29.929Z,26.45
2019-02-18T16:48:01.333Z,32.67
2019-02-18T16:50:31.230Z,33.38
2019-02-18T16:53:01.215Z,26.02
2019-02-18T16:55:30.928Z,27.10
2019-02-18T16:58:00.671Z,26.25
2019-02-18T17:00:32.914Z,30.77
2019-02-18T17:03:04.532Z,26.42
2019-02-18T17:05:34.320Z,32.98
2019-02-18T17:08:04.392Z,36.95
2019-02-18T17:10:34.507Z,30.50
2019-02-18T17:13:08.187Z,35.17
2019-02-18T17:15:35.862Z,27.98
2019-02-18T17:18:06.509Z,24.10
2019-02-18T17:20:36.271Z,32.10
2019-02-18T17:23:05.963Z,25.23
2019-02-18T17:25:35.723Z,44.15
2019-02-18T17:28:05.613Z,36.73
2019-02-18T17:30:35.402Z,38.60
2019-02-18T17:33:05.194Z,33.28
2019-02-18T17:35:36.095Z,38.90
2019-02-18T17:38:06.343Z,47.38
2019-02-18T17:40:36.078Z,44.58
2019-02-18T17:43:05.815Z,46.58
2019-02-18T17:45:35.522Z,51.40
2019-02-18T17:48:05.275Z,55.10
2019-02-18T17:50:34.977Z,48.63
2019-02-18T17:53:05.062Z,47.17
2019-02-18T17:55:34.753Z,52.35
2019-02-18T17:58:04.662Z,56.23
2019-02-18T18:00:35.101Z,56.77
2019-02-18T18:03:04.955Z,55.55
2019-02-18T18:05:35.094Z,53.55
2019-02-18T18:08:05.228Z,54.58
2019-02-18T18:10:35.003Z,58.35
2019-02-18T18:13:04.720Z,59.18
2019-02-18T18:15:34.401Z,59.70
2019-02-18T18:18:04.112Z,60.38
2019-02-18T18:20:33.767Z,66.67
2019-02-18T18:23:03.518Z,55.95
2019-02-18T18:25:33.162Z,72.15
2019-02-18T18:28:02.866Z,61.23
2019-02-18T18:30:32.550Z,56.50
2019-02-18T18:33:02.326Z,68.25
2019-02-18T18:35:32.061Z,66.25
2019-02-18T18:38:01.789Z,75.60
2019-02-18T18:40:31.495Z,69.25
2019-02-18T18:43:01.311Z,59.38
2019-02-18T18:45:31.359Z,63.70
2019-02-18T18:48:01.157Z,62.08
2019-02-18T18:50:31.288Z,56.73
2019-02-18T18:53:01.006Z,64.97
2019-02-18T18:55:30.729Z,67.17
2019-02-18T18:58:00.452Z,58.45
2019-02-18T19:00:30.139Z,60.08
2019-02-18T19:03:02.738Z,61.42
2019-02-18T19:05:32.508Z,57.93
2019-02-18T19:08:02.159Z,60.55
2019-02-18T19:10:34.670Z,69.65
2019-02-18T19:13:04.499Z,61.40
2019-02-18T19:15:34.243Z,63.20
2019-02-18T19:18:03.939Z,73.72
2019-02-18T19:20:33.656Z,69.80
2019-02-18T19:23:03.336Z,60.60
2019-02-18T19:25:33.058Z,78.17
2019-02-18T19:28:02.881Z,70.40
2019-02-18T19:30:33.115Z,69.55
2019-02-18T19:33:02.837Z,66.75
2019-02-18T19:35:32.601Z,68.85
2019-02-18T19:38:02.375Z,58.78
2019-02-18T19:40:32.245Z,69.90
2019-02-18T19:43:02.035Z,71.82
2019-02-18T19:45:32.081Z,71.28
2019-02-18T19:48:05.102Z,73.80
2019-02-18T19:50:34.935Z,77.05
2019-02-18T19:53:04.639Z,75.30
2019-02-18T19:55:34.427Z,70.75
2019-02-18T19:58:04.058Z,83.67
2019-02-18T20:00:33.771Z,80.07
2019-02-18T20:03:03.718Z,71.12
2019-02-18T20:05:33.398Z,77.70
2019-02-18T20:08:03.532Z,80.25
2019-02-18T20:10:33.282Z,80.80
2019-02-18T20:13:04.149Z,83.97
2019-02-18T20:15:34.019Z,77.00
2019-02-18T20:18:03.704Z,83.62
2019-02-18T20:20:33.431Z,79.27
2019-02-18T20:23:03.243Z,84.92
2019-02-18T20:25:35.648Z,88.10
2019-02-18T20:28:05.605Z,97.02
2019-02-18T20:30:35.458Z,96.00
2019-02-18T20:33:05.260Z,92.45
2019-02-18T20:35:35.001Z,82.62
2019-02-18T20:38:05.110Z,82.17
2019-02-18T20:40:37.056Z,90.80
2019-02-18T20:43:06.727Z,88.60
2019-02-18T20:45:36.478Z,84.85
2019-02-18T20:48:06.164Z,86.78
2019-02-18T20:50:35.930Z,83.45
2019-02-18T20:53:05.693Z,82.42
2019-02-18T20:55:35.570Z,80.60
2019-02-18T20:58:05.406Z,84.10
2019-02-18T21:00:35.122Z,90.40
2019-02-18T21:03:04.859Z,78.87
2019-02-18T21:05:34.966Z,84.87
2019-02-18T21:08:04.791Z,74.72
2019-02-18T21:10:34.463Z,78.42
2019-02-18T21:13:04.200Z,83.00
2019-02-18T21:15:34.135Z,86.63
2019-02-18T21:18:03.941Z,76.17
2019-02-18T21:20:33.968Z,75.55
2019-02-18T21:23:03.838Z,77.53
2019-02-18T21:25:34.244Z,81.28
2019-02-18T21:28:03.952Z,86.42
2019-02-18T21:30:33.630Z,74.55
2019-02-18T21:33:03.499Z,76.10
2019-02-18T21:35:33.181Z,78.90
2019-02-18T21:38:02.902Z,83.45
2019-02-18T21:40:32.550Z,76.35
2019-02-18T21:43:02.273Z,75.97
2019-02-18T21:45:31.955Z,86.92
2019-02-18T21:48:02.207Z,78.12
2019-02-18T21:50:32.077Z,83.07
2019-02-18T21:53:01.979Z,86.53
2019-02-18T21:55:31.669Z,87.88
2019-02-18T21:58:01.381Z,100.97
2019-02-18T22:00:31.036Z,88.78
2019-02-18T22:03:01.042Z,82.05
2019-02-18T22:05:30.833Z,75.40
2019-02-18T22:08:00.623Z,85.57
2019-02-18T22:10:30.333Z,76.47
2019-02-18T22:13:00.199Z,82.00
2019-02-18T22:15:29.962Z,74.53
2019-02-18T22:18:00.078Z,87.97
2019-02-18T22:20:29.879Z,79.15
2019-02-18T22:22:59.797Z,84.65
2019-02-18T22:25:29.542Z,86.80
2019-02-18T22:27:59.368Z,74.85
2019-02-18T22:30:29.266Z,81.63
2019-02-18T22:32:59.494Z,73.25
2019-02-18T22:35:29.272Z,60.95
2019-02-18T22:37:59.064Z,67.45
2019-02-18T22:40:28.857Z,77.67
2019-02-18T22:42:58.567Z,60.12
2019-02-18T22:45:28.419Z,67.47
2019-02-18T22:47:58.762Z,67.97
2019-02-18T22:50:28.408Z,78.57
2019-02-18T22:52:58.141Z,67.03
2019-02-18T22:55:27.857Z,66.67
2019-02-18T22:57:57.579Z,67.30
2019-02-18T23:00:55.659Z,65.03
2019-02-18T23:03:25.523Z,57.85
2019-02-18T23:05:55.357Z,65.20
2019-02-18T23:08:25.150Z,61.73
2019-02-18T23:10:54.955Z,58.87
2019-02-18T23:13:25.098Z,60.20
2019-02-18T23:15:56.395Z,59.83
2019-02-18T23:18:27.278Z,59.60
2019-02-18T23:20:56.961Z,59.60
2019-02-18T23:23:26.685Z,59.25
2019-02-18T23:25:56.368Z,54.80
2019-02-18T23:28:26.078Z,63.42
2019-02-18T23:30:55.819Z,59.30
2019-02-18T23:33:25.538Z,48.28
2019-02-18T23:35:55.316Z,49.90
2019-02-18T23:38:25.032Z,53.10
2019-02-18T23:40:55.439Z,60.33
2019-02-18T23:43:25.230Z,57.53
2019-02-18T23:45:55.980Z,59.83
2019-02-18T23:48:25.739Z,60.48
2019-02-18T23:50:55.483Z,57.30
2019-02-18T23:53:25.217Z,61.15
2019-02-18T23:55:54.963Z,56.90
2019-02-18T23:58:24.686Z,58.38
